sensor_id;sensor_type;location;lat;lon;timestamp;pressure;altitude;pressure_sealevel;temperature;humidity
10712;BME280;5407;51.234;6.804;2023-01-29T00:01:55;102515.56;;;23.34;33.28
10712;BME280;5407;51.234;6.804;2023-01-29T00:04:22;102514.75;;;23.34;33.30
10712;BME280;5407;51.234;6.804;2023-01-29T00:06:49;102512.00;;;23.34;33.27
10712;BME280;5407;51.234;6.804;2023-01-29T00:09:17;102513.97;;;23.33;33.32
10712;BME280;5407;51.234;6.804;2023-01-29T00:11:44;102505.72;;;23.33;33.16
10712;BME280;5407;51.234;6.804;2023-01-29T00:14:11;102511.59;;;23.32;33.22
10712;BME280;5407;51.234;6.804;2023-01-29T00:16:38;102504.13;;;23.32;33.17
10712;BME280;5407;51.234;6.804;2023-01-29T00:19:05;102501.38;;;23.32;33.08
10712;BME280;5407;51.234;6.804;2023-01-29T00:21:33;102499.41;;;23.33;33.00
10712;BME280;5407;51.234;6.804;2023-01-29T00:23:59;102501.38;;;23.32;33.13
10712;BME280;5407;51.234;6.804;2023-01-29T00:26:28;102497.81;;;23.32;33.09
10712;BME280;5407;51.234;6.804;2023-01-29T00:28:55;102497.81;;;23.32;32.95
10712;BME280;5407;51.234;6.804;2023-01-29T00:31:25;102493.47;;;23.31;32.99
10712;BME280;5407;51.234;6.804;2023-01-29T00:33:52;102490.72;;;23.31;32.94
10712;BME280;5407;51.234;6.804;2023-01-29T00:36:20;102487.97;;;23.31;32.91
10712;BME280;5407;51.234;6.804;2023-01-29T00:38:53;102494.28;;;23.31;32.86
10712;BME280;5407;51.234;6.804;2023-01-29T00:41:25;102495.06;;;23.32;32.68
10712;BME280;5407;51.234;6.804;2023-01-29T00:44:12;102493.47;;;23.31;32.69
10712;BME280;5407;51.234;6.804;2023-01-29T00:46:56;102491.13;;;23.29;32.68
10712;BME280;5407;51.234;6.804;2023-01-29T00:49:24;102494.28;;;23.31;32.62
10712;BME280;5407;51.234;6.804;2023-01-29T00:51:51;102483.63;;;23.30;32.71
10712;BME280;5407;51.234;6.804;2023-01-29T00:54:32;102485.63;;;23.29;32.83
10712;BME280;5407;51.234;6.804;2023-01-29T00:56:59;102475.78;;;23.28;32.68
10712;BME280;5407;51.234;6.804;2023-01-29T00:59:27;102480.47;;;23.28;32.80
10712;BME280;5407;51.234;6.804;2023-01-29T01:01:54;102486.00;;;23.28;32.65
10712;BME280;5407;51.234;6.804;2023-01-29T01:04:38;102488.75;;;23.28;32.75
10712;BME280;5407;51.234;6.804;2023-01-29T01:07:05;102489.91;;;23.27;32.82
10712;BME280;5407;51.234;6.804;2023-01-29T01:09:34;102487.97;;;23.27;32.77
10712;BME280;5407;51.234;6.804;2023-01-29T01:12:18;102503.69;;;23.27;32.82
10712;BME280;5407;51.234;6.804;2023-01-29T01:14:47;102496.59;;;23.26;32.75
10712;BME280;5407;51.234;6.804;2023-01-29T01:17:14;102503.28;;;23.25;32.87
10712;BME280;5407;51.234;6.804;2023-01-29T01:19:42;102500.53;;;23.25;32.82
10712;BME280;5407;51.234;6.804;2023-01-29T01:22:09;102496.19;;;23.24;32.72
10712;BME280;5407;51.234;6.804;2023-01-29T01:24:36;102491.50;;;23.24;32.87
10712;BME280;5407;51.234;6.804;2023-01-29T01:27:04;102495.03;;;23.25;32.87
10712;BME280;5407;51.234;6.804;2023-01-29T01:29:31;102486.34;;;23.23;32.81
10712;BME280;5407;51.234;6.804;2023-01-29T01:31:59;102487.94;;;23.24;32.76
10712;BME280;5407;51.234;6.804;2023-01-29T01:34:26;102485.59;;;23.22;32.83
10712;BME280;5407;51.234;6.804;2023-01-29T01:36:54;102469.84;;;23.23;32.86
10712;BME280;5407;51.234;6.804;2023-01-29T01:39:22;102460.41;;;23.24;32.80
10712;BME280;5407;51.234;6.804;2023-01-29T01:41:49;102454.13;;;23.23;32.86
10712;BME280;5407;51.234;6.804;2023-01-29T01:44:53;102451.34;;;23.23;32.73
10712;BME280;5407;51.234;6.804;2023-01-29T01:47:25;102451.72;;;23.22;32.80
10712;BME280;5407;51.234;6.804;2023-01-29T01:49:56;102454.47;;;23.22;32.75
10712;BME280;5407;51.234;6.804;2023-01-29T01:52:26;102454.47;;;23.22;32.83
10712;BME280;5407;51.234;6.804;2023-01-29T01:54:54;102456.47;;;23.21;32.75
10712;BME280;5407;51.234;6.804;2023-01-29T01:57:22;102454.88;;;23.20;32.80
10712;BME280;5407;51.234;6.804;2023-01-29T01:59:54;102455.25;;;23.19;32.76
10712;BME280;5407;51.234;6.804;2023-01-29T02:02:24;102452.13;;;23.20;32.74
10712;BME280;5407;51.234;6.804;2023-01-29T02:05:11;102460.38;;;23.20;32.66
10712;BME280;5407;51.234;6.804;2023-01-29T02:07:57;102463.91;;;23.21;32.57
10712;BME280;5407;51.234;6.804;2023-01-29T02:10:44;102466.66;;;23.21;32.61
10712;BME280;5407;51.234;6.804;2023-01-29T02:13:13;102459.22;;;23.21;32.66
10712;BME280;5407;51.234;6.804;2023-01-29T02:15:43;102460.00;;;23.22;32.49
10712;BME280;5407;51.234;6.804;2023-01-29T02:18:13;102460.00;;;23.22;32.53
10712;BME280;5407;51.234;6.804;2023-01-29T02:20:52;102469.06;;;23.22;32.54
10712;BME280;5407;51.234;6.804;2023-01-29T02:23:59;102458.81;;;23.23;32.50
10712;BME280;5407;51.234;6.804;2023-01-29T02:27:00;102470.63;;;23.23;32.55
10712;BME280;5407;51.234;6.804;2023-01-29T02:29:35;102485.19;;;23.24;32.50
10712;BME280;5407;51.234;6.804;2023-01-29T02:32:14;102482.44;;;23.24;32.57
10712;BME280;5407;51.234;6.804;2023-01-29T02:34:51;102491.88;;;23.23;32.52
10712;BME280;5407;51.234;6.804;2023-01-29T02:37:44;102498.94;;;23.24;32.42
10712;BME280;5407;51.234;6.804;2023-01-29T02:40:21;102503.69;;;23.23;32.51
10712;BME280;5407;51.234;6.804;2023-01-29T02:42:58;102504.47;;;23.24;32.50
10712;BME280;5407;51.234;6.804;2023-01-29T02:45:33;102501.31;;;23.22;32.43
10712;BME280;5407;51.234;6.804;2023-01-29T02:48:02;102513.91;;;23.23;32.46
10712;BME280;5407;51.234;6.804;2023-01-29T02:50:33;102502.88;;;23.23;32.40
10712;BME280;5407;51.234;6.804;2023-01-29T02:53:08;102502.47;;;23.21;32.33
10712;BME280;5407;51.234;6.804;2023-01-29T02:55:41;102495.00;;;23.21;32.44
10712;BME280;5407;51.234;6.804;2023-01-29T02:58:16;102488.69;;;23.21;32.40
10712;BME280;5407;51.234;6.804;2023-01-29T03:00:48;102488.69;;;23.21;32.33
10712;BME280;5407;51.234;6.804;2023-01-29T03:03:20;102482.41;;;23.20;32.28
10712;BME280;5407;51.234;6.804;2023-01-29T03:05:57;102487.94;;;23.20;32.36
10712;BME280;5407;51.234;6.804;2023-01-29T03:08:32;102481.63;;;23.20;32.34
10712;BME280;5407;51.234;6.804;2023-01-29T03:11:09;102476.91;;;23.20;32.29
10712;BME280;5407;51.234;6.804;2023-01-29T03:13:42;102478.06;;;23.19;32.31
10712;BME280;5407;51.234;6.804;2023-01-29T03:16:20;102475.69;;;23.18;32.36
10712;BME280;5407;51.234;6.804;2023-01-29T03:18:53;102472.94;;;23.18;32.33
10712;BME280;5407;51.234;6.804;2023-01-29T03:21:26;102475.69;;;23.18;32.38
10712;BME280;5407;51.234;6.804;2023-01-29T03:24:14;102478.81;;;23.16;32.38
10712;BME280;5407;51.234;6.804;2023-01-29T03:27:03;102476.88;;;23.17;32.23
10712;BME280;5407;51.234;6.804;2023-01-29T03:29:53;102486.31;;;23.16;32.25
10712;BME280;5407;51.234;6.804;2023-01-29T03:33:05;102484.72;;;23.15;32.25
10712;BME280;5407;51.234;6.804;2023-01-29T03:35:36;102490.25;;;23.15;32.13
10712;BME280;5407;51.234;6.804;2023-01-29T03:38:06;102496.53;;;23.15;32.02
10712;BME280;5407;51.234;6.804;2023-01-29T03:40:39;102496.53;;;23.15;32.08
10712;BME280;5407;51.234;6.804;2023-01-29T03:43:12;102495.75;;;23.15;32.13
10712;BME280;5407;51.234;6.804;2023-01-29T03:45:49;102484.72;;;23.15;32.03
10712;BME280;5407;51.234;6.804;2023-01-29T03:48:27;102480.41;;;23.14;31.99
10712;BME280;5407;51.234;6.804;2023-01-29T03:51:02;102483.16;;;23.14;31.88
10712;BME280;5407;51.234;6.804;2023-01-29T03:53:41;102479.59;;;23.13;31.84
10712;BME280;5407;51.234;6.804;2023-01-29T03:56:19;102476.84;;;23.13;31.95
10712;BME280;5407;51.234;6.804;2023-01-29T03:58:55;102480.75;;;23.12;31.96
10712;BME280;5407;51.234;6.804;2023-01-29T04:01:39;102477.25;;;23.12;31.94
10712;BME280;5407;51.234;6.804;2023-01-29T04:04:13;102474.47;;;23.12;32.00
10712;BME280;5407;51.234;6.804;2023-01-29T04:06:42;102466.59;;;23.10;32.03
10712;BME280;5407;51.234;6.804;2023-01-29T04:09:13;102470.16;;;23.11;32.01
10712;BME280;5407;51.234;6.804;2023-01-29T04:11:48;102465.81;;;23.10;32.25
10712;BME280;5407;51.234;6.804;2023-01-29T04:14:16;102464.97;;;23.09;32.15
10712;BME280;5407;51.234;6.804;2023-01-29T04:16:48;102464.22;;;23.09;32.51
10712;BME280;5407;51.234;6.804;2023-01-29T04:19:29;102458.66;;;23.05;32.73
10712;BME280;5407;51.234;6.804;2023-01-29T04:22:02;102460.22;;;23.03;32.65
10712;BME280;5407;51.234;6.804;2023-01-29T04:24:30;102444.50;;;23.03;33.14
10712;BME280;5407;51.234;6.804;2023-01-29T04:27:06;102440.56;;;23.04;33.62
10712;BME280;5407;51.234;6.804;2023-01-29T04:29:42;102440.56;;;23.04;34.27
10712;BME280;5407;51.234;6.804;2023-01-29T04:32:15;102431.94;;;23.06;34.70
10712;BME280;5407;51.234;6.804;2023-01-29T04:34:58;102439.03;;;23.07;35.04
10712;BME280;5407;51.234;6.804;2023-01-29T04:37:32;102436.66;;;23.09;35.57
10712;BME280;5407;51.234;6.804;2023-01-29T04:40:12;102434.34;;;23.11;36.02
10712;BME280;5407;51.234;6.804;2023-01-29T04:42:43;102427.28;;;23.10;36.40
10712;BME280;5407;51.234;6.804;2023-01-29T04:45:19;102435.94;;;23.12;36.50
10712;BME280;5407;51.234;6.804;2023-01-29T04:47:53;102437.50;;;23.13;36.59
10712;BME280;5407;51.234;6.804;2023-01-29T04:50:27;102432.41;;;23.15;36.14
10712;BME280;5407;51.234;6.804;2023-01-29T04:53:01;102431.25;;;23.16;36.03
10712;BME280;5407;51.234;6.804;2023-01-29T04:55:34;102427.31;;;23.17;35.97
10712;BME280;5407;51.234;6.804;2023-01-29T04:58:06;102420.63;;;23.18;35.89
10712;BME280;5407;51.234;6.804;2023-01-29T05:00:39;102420.63;;;23.18;35.70
10712;BME280;5407;51.234;6.804;2023-01-29T05:03:07;102417.88;;;23.18;35.55
10712;BME280;5407;51.234;6.804;2023-01-29T05:05:39;102417.88;;;23.18;35.38
10712;BME280;5407;51.234;6.804;2023-01-29T05:08:08;102414.31;;;23.17;35.36
10712;BME280;5407;51.234;6.804;2023-01-29T05:10:36;102419.44;;;23.19;34.99
10712;BME280;5407;51.234;6.804;2023-01-29T05:13:05;102421.84;;;23.20;35.01
10712;BME280;5407;51.234;6.804;2023-01-29T05:15:35;102420.22;;;23.19;34.95
10712;BME280;5407;51.234;6.804;2023-01-29T05:18:04;102408.44;;;23.19;34.81
10712;BME280;5407;51.234;6.804;2023-01-29T05:20:37;102415.13;;;23.18;34.86
10712;BME280;5407;51.234;6.804;2023-01-29T05:23:08;102407.63;;;23.18;34.75
10712;BME280;5407;51.234;6.804;2023-01-29T05:25:36;102398.59;;;23.18;34.58
10712;BME280;5407;51.234;6.804;2023-01-29T05:28:03;102399.78;;;23.17;34.49
10712;BME280;5407;51.234;6.804;2023-01-29T05:30:30;102405.28;;;23.17;34.49
10712;BME280;5407;51.234;6.804;2023-01-29T05:32:57;102405.28;;;23.17;34.42
10712;BME280;5407;51.234;6.804;2023-01-29T05:35:24;102403.69;;;23.16;34.38
10712;BME280;5407;51.234;6.804;2023-01-29T05:37:54;102396.63;;;23.15;34.29
10712;BME280;5407;51.234;6.804;2023-01-29T05:40:21;102394.63;;;23.15;34.20
10712;BME280;5407;51.234;6.804;2023-01-29T05:42:48;102394.63;;;23.15;34.21
10712;BME280;5407;51.234;6.804;2023-01-29T05:45:16;102391.09;;;23.15;34.10
10712;BME280;5407;51.234;6.804;2023-01-29T05:47:44;102389.53;;;23.14;34.12
10712;BME280;5407;51.234;6.804;2023-01-29T05:50:11;102389.53;;;23.14;34.03
10712;BME280;5407;51.234;6.804;2023-01-29T05:52:39;102387.94;;;23.13;34.07
10712;BME280;5407;51.234;6.804;2023-01-29T05:55:08;102399.75;;;23.13;34.02
10712;BME280;5407;51.234;6.804;2023-01-29T05:57:35;102391.47;;;23.13;33.86
10712;BME280;5407;51.234;6.804;2023-01-29T06:00:04;102389.91;;;23.12;33.90
10712;BME280;5407;51.234;6.804;2023-01-29T06:02:38;102389.53;;;23.14;33.87
10712;BME280;5407;51.234;6.804;2023-01-29T06:05:05;102412.34;;;23.14;33.92
10712;BME280;5407;51.234;6.804;2023-01-29T06:07:32;102412.72;;;23.13;33.98
10712;BME280;5407;51.234;6.804;2023-01-29T06:09:59;102421.00;;;23.13;34.02
10712;BME280;5407;51.234;6.804;2023-01-29T06:12:27;102418.63;;;23.11;34.04
10712;BME280;5407;51.234;6.804;2023-01-29T06:14:54;102410.75;;;23.10;34.03
10712;BME280;5407;51.234;6.804;2023-01-29T06:17:21;102417.03;;;23.10;33.94
10712;BME280;5407;51.234;6.804;2023-01-29T06:19:48;102421.75;;;23.10;33.95
10712;BME280;5407;51.234;6.804;2023-01-29T06:22:14;102423.69;;;23.09;34.00
10712;BME280;5407;51.234;6.804;2023-01-29T06:24:41;102435.53;;;23.10;34.03
10712;BME280;5407;51.234;6.804;2023-01-29T06:27:08;102435.09;;;23.08;33.94
10712;BME280;5407;51.234;6.804;2023-01-29T06:29:36;102442.19;;;23.09;33.97
10712;BME280;5407;51.234;6.804;2023-01-29T06:32:04;102447.69;;;23.09;34.06
10712;BME280;5407;51.234;6.804;2023-01-29T06:34:31;102453.19;;;23.09;34.03
10712;BME280;5407;51.234;6.804;2023-01-29T06:36:57;102453.19;;;23.09;34.00
10712;BME280;5407;51.234;6.804;2023-01-29T06:39:24;102453.97;;;23.09;33.73
10712;BME280;5407;51.234;6.804;2023-01-29T06:41:51;102446.53;;;23.10;33.79
10712;BME280;5407;51.234;6.804;2023-01-29T06:44:18;102462.66;;;23.11;33.81
10712;BME280;5407;51.234;6.804;2023-01-29T06:46:46;102456.38;;;23.11;33.78
10712;BME280;5407;51.234;6.804;2023-01-29T06:49:13;102454.03;;;23.13;33.88
10712;BME280;5407;51.234;6.804;2023-01-29T06:51:40;102452.47;;;23.12;33.78
10712;BME280;5407;51.234;6.804;2023-01-29T06:54:08;102437.50;;;23.13;33.81
10712;BME280;5407;51.234;6.804;2023-01-29T06:56:35;102448.53;;;23.13;33.79
10712;BME280;5407;51.234;6.804;2023-01-29T06:59:01;102430.44;;;23.12;33.74
10712;BME280;5407;51.234;6.804;2023-01-29T07:01:28;102422.16;;;23.12;33.81
10712;BME280;5407;51.234;6.804;2023-01-29T07:03:57;102428.84;;;23.11;33.78
10712;BME280;5407;51.234;6.804;2023-01-29T07:06:26;102421.75;;;23.10;33.73
10712;BME280;5407;51.234;6.804;2023-01-29T07:08:54;102430.03;;;23.10;33.62
10712;BME280;5407;51.234;6.804;2023-01-29T07:11:21;102432.78;;;23.10;33.57
10712;BME280;5407;51.234;6.804;2023-01-29T07:13:48;102424.84;;;23.08;33.57
10712;BME280;5407;51.234;6.804;2023-01-29T07:16:14;102440.59;;;23.08;33.51
10712;BME280;5407;51.234;6.804;2023-01-29T07:18:42;102446.88;;;23.08;33.53
10712;BME280;5407;51.234;6.804;2023-01-29T07:21:10;102441.78;;;23.07;33.44
10712;BME280;5407;51.234;6.804;2023-01-29T07:23:37;102437.84;;;23.08;33.46
10712;BME280;5407;51.234;6.804;2023-01-29T07:26:04;102446.47;;;23.06;33.43
10712;BME280;5407;51.234;6.804;2023-01-29T07:28:35;102445.69;;;23.06;33.48
10712;BME280;5407;51.234;6.804;2023-01-29T07:31:02;102448.47;;;23.06;33.46
10712;BME280;5407;51.234;6.804;2023-01-29T07:33:29;102439.78;;;23.04;33.33
10712;BME280;5407;51.234;6.804;2023-01-29T07:35:55;102442.53;;;23.04;33.42
10712;BME280;5407;51.234;6.804;2023-01-29T07:38:24;102446.06;;;23.04;33.41
10712;BME280;5407;51.234;6.804;2023-01-29T07:40:51;102427.19;;;23.03;33.40
10712;BME280;5407;51.234;6.804;2023-01-29T07:43:18;102424.44;;;23.03;33.37
10712;BME280;5407;51.234;6.804;2023-01-29T07:45:45;102431.13;;;23.02;33.31
10712;BME280;5407;51.234;6.804;2023-01-29T07:48:12;102425.63;;;23.02;33.29
10712;BME280;5407;51.234;6.804;2023-01-29T07:50:39;102415.78;;;23.01;33.32
10712;BME280;5407;51.234;6.804;2023-01-29T07:53:11;102435.06;;;23.01;33.26
10712;BME280;5407;51.234;6.804;2023-01-29T07:55:42;102427.16;;;22.99;33.17
10712;BME280;5407;51.234;6.804;2023-01-29T07:58:09;102433.06;;;23.01;33.15
10712;BME280;5407;51.234;6.804;2023-01-29T08:00:36;102424.03;;;23.01;33.05
10712;BME280;5407;51.234;6.804;2023-01-29T08:03:04;102409.09;;;23.02;33.02
10712;BME280;5407;51.234;6.804;2023-01-29T08:05:31;102404.38;;;23.02;33.10
10712;BME280;5407;51.234;6.804;2023-01-29T08:07:58;102410.69;;;23.03;33.07
10712;BME280;5407;51.234;6.804;2023-01-29T08:10:26;102400.44;;;23.03;33.13
10712;BME280;5407;51.234;6.804;2023-01-29T08:12:56;102402.41;;;23.03;33.12
10712;BME280;5407;51.234;6.804;2023-01-29T08:15:24;102410.69;;;23.03;32.97
10712;BME280;5407;51.234;6.804;2023-01-29T08:17:51;102416.19;;;23.03;32.91
10712;BME280;5407;51.234;6.804;2023-01-29T08:20:19;102410.69;;;23.03;32.94
10712;BME280;5407;51.234;6.804;2023-01-29T08:22:46;102410.69;;;23.03;32.96
10712;BME280;5407;51.234;6.804;2023-01-29T08:25:14;102418.94;;;23.03;32.90
10712;BME280;5407;51.234;6.804;2023-01-29T08:27:41;102427.19;;;23.03;32.87
10712;BME280;5407;51.234;6.804;2023-01-29T08:30:10;102418.94;;;23.03;32.93
10712;BME280;5407;51.234;6.804;2023-01-29T08:32:37;102418.13;;;23.02;32.83
10712;BME280;5407;51.234;6.804;2023-01-29T08:35:05;102425.63;;;23.02;32.87
10712;BME280;5407;51.234;6.804;2023-01-29T08:37:31;102428.75;;;23.00;32.67
10712;BME280;5407;51.234;6.804;2023-01-29T08:39:58;102413.81;;;23.01;32.67
10712;BME280;5407;51.234;6.804;2023-01-29T08:42:25;102413.03;;;23.01;32.61
10712;BME280;5407;51.234;6.804;2023-01-29T08:44:52;102413.03;;;23.01;32.71
10712;BME280;5407;51.234;6.804;2023-01-29T08:47:20;102413.03;;;23.01;32.62
10712;BME280;5407;51.234;6.804;2023-01-29T08:49:47;102411.44;;;23.00;32.52
10712;BME280;5407;51.234;6.804;2023-01-29T08:52:14;102404.78;;;23.01;32.60
10712;BME280;5407;51.234;6.804;2023-01-29T08:54:41;102410.66;;;22.99;32.47
10712;BME280;5407;51.234;6.804;2023-01-29T08:57:07;102417.72;;;23.00;32.55
10712;BME280;5407;51.234;6.804;2023-01-29T08:59:34;102418.53;;;23.01;32.57
10712;BME280;5407;51.234;6.804;2023-01-29T09:02:01;102418.53;;;23.01;32.76
10712;BME280;5407;51.234;6.804;2023-01-29T09:04:29;102407.53;;;23.01;32.78
10712;BME280;5407;51.234;6.804;2023-01-29T09:06:56;102396.50;;;23.01;32.91
10712;BME280;5407;51.234;6.804;2023-01-29T09:09:23;102389.03;;;23.01;33.07
10712;BME280;5407;51.234;6.804;2023-01-29T09:11:50;102388.66;;;23.03;33.09
10712;BME280;5407;51.234;6.804;2023-01-29T09:14:17;102394.16;;;23.03;33.14
10712;BME280;5407;51.234;6.804;2023-01-29T09:16:44;102384.72;;;23.04;33.02
10712;BME280;5407;51.234;6.804;2023-01-29T09:19:10;102386.31;;;23.05;33.20
10712;BME280;5407;51.234;6.804;2023-01-29T09:21:38;102387.09;;;23.05;33.12
10712;BME280;5407;51.234;6.804;2023-01-29T09:24:05;102389.47;;;23.07;33.32
10712;BME280;5407;51.234;6.804;2023-01-29T09:26:32;102376.47;;;23.07;33.37
10712;BME280;5407;51.234;6.804;2023-01-29T09:28:59;102382.78;;;23.08;33.28
10712;BME280;5407;51.234;6.804;2023-01-29T09:31:26;102376.09;;;23.09;33.35
10712;BME280;5407;51.234;6.804;2023-01-29T09:33:53;102376.09;;;23.09;33.32
10712;BME280;5407;51.234;6.804;2023-01-29T09:36:19;102375.28;;;23.08;33.28
10712;BME280;5407;51.234;6.804;2023-01-29T09:38:47;102365.09;;;23.09;33.14
10712;BME280;5407;51.234;6.804;2023-01-29T09:41:24;102365.53;;;23.11;33.23
10712;BME280;5407;51.234;6.804;2023-01-29T09:43:55;102360.41;;;23.13;33.10
10712;BME280;5407;51.234;6.804;2023-01-29T09:46:29;102353.72;;;23.14;33.26
10712;BME280;5407;51.234;6.804;2023-01-29T09:49:02;102348.59;;;23.12;33.21
10712;BME280;5407;51.234;6.804;2023-01-29T09:51:34;102353.34;;;23.12;33.09
10712;BME280;5407;51.234;6.804;2023-01-29T09:54:12;102347.81;;;23.12;33.15
10712;BME280;5407;51.234;6.804;2023-01-29T09:56:44;102354.09;;;23.12;33.09
10712;BME280;5407;51.234;6.804;2023-01-29T09:59:12;102340.75;;;23.11;33.31
10712;BME280;5407;51.234;6.804;2023-01-29T10:01:44;102342.31;;;23.12;33.17
10712;BME280;5407;51.234;6.804;2023-01-29T10:07:35;102339.56;;;23.12;33.11
10712;BME280;5407;51.234;6.804;2023-01-29T10:10:27;102339.97;;;23.14;33.04
10712;BME280;5407;51.234;6.804;2023-01-29T10:13:01;102352.97;;;23.17;33.10
10712;BME280;5407;51.234;6.804;2023-01-29T10:15:43;102350.22;;;23.17;33.04
10712;BME280;5407;51.234;6.804;2023-01-29T10:18:33;102350.59;;;23.19;32.97
10712;BME280;5407;51.234;6.804;2023-01-29T10:21:14;102349.44;;;23.20;32.96
10712;BME280;5407;51.234;6.804;2023-01-29T10:23:47;102355.75;;;23.20;33.03
10712;BME280;5407;51.234;6.804;2023-01-29T10:26:20;102342.34;;;23.19;32.92
10712;BME280;5407;51.234;6.804;2023-01-29T10:28:50;102347.84;;;23.19;32.84
10712;BME280;5407;51.234;6.804;2023-01-29T10:31:21;102350.22;;;23.17;32.94
10712;BME280;5407;51.234;6.804;2023-01-29T10:33:55;102349.41;;;23.16;32.90
10712;BME280;5407;51.234;6.804;2023-01-29T10:36:27;102344.69;;;23.17;32.90
10712;BME280;5407;51.234;6.804;2023-01-29T10:38:58;102355.72;;;23.17;32.89
10712;BME280;5407;51.234;6.804;2023-01-29T10:41:47;102348.63;;;23.16;32.90
10712;BME280;5407;51.234;6.804;2023-01-29T10:44:34;102337.63;;;23.16;32.84
10712;BME280;5407;51.234;6.804;2023-01-29T10:50:09;102327.38;;;23.13;32.92
10712;BME280;5407;51.234;6.804;2023-01-29T10:52:48;102316.38;;;23.13;32.85
10712;BME280;5407;51.234;6.804;2023-01-29T10:55:26;102313.63;;;23.13;32.77
10712;BME280;5407;51.234;6.804;2023-01-29T10:58:07;102316.38;;;23.13;32.90
10712;BME280;5407;51.234;6.804;2023-01-29T11:00:40;102311.63;;;23.13;32.61
10712;BME280;5407;51.234;6.804;2023-01-29T11:03:14;102304.94;;;23.11;32.89
10712;BME280;5407;51.234;6.804;2023-01-29T11:05:50;102299.78;;;23.09;32.83
10712;BME280;5407;51.234;6.804;2023-01-29T11:08:23;102297.44;;;23.08;32.83
10712;BME280;5407;51.234;6.804;2023-01-29T11:10:59;102291.13;;;23.07;32.91
10712;BME280;5407;51.234;6.804;2023-01-29T11:13:31;102294.28;;;23.06;32.90
10712;BME280;5407;51.234;6.804;2023-01-29T11:16:00;102286.41;;;23.04;32.99
10712;BME280;5407;51.234;6.804;2023-01-29T11:18:47;102293.06;;;23.03;32.69
10712;BME280;5407;51.234;6.804;2023-01-29T11:21:14;102284.97;;;22.56;26.65
10712;BME280;5407;51.234;6.804;2023-01-29T11:23:41;102282.69;;;22.18;26.73
10712;BME280;5407;51.234;6.804;2023-01-29T11:26:11;102283.53;;;21.79;26.71
10712;BME280;5407;51.234;6.804;2023-01-29T11:28:41;102283.59;;;21.50;26.07
10712;BME280;5407;51.234;6.804;2023-01-29T11:31:20;102270.56;;;21.10;26.23
10712;BME280;5407;51.234;6.804;2023-01-29T11:33:49;102277.97;;;20.77;26.34
10712;BME280;5407;51.234;6.804;2023-01-29T11:36:29;102269.03;;;20.54;26.37
10712;BME280;5407;51.234;6.804;2023-01-29T11:39:18;102267.00;;;20.25;27.00
10712;BME280;5407;51.234;6.804;2023-01-29T11:41:52;102250.63;;;20.29;29.28
10712;BME280;5407;51.234;6.804;2023-01-29T11:44:27;102252.84;;;20.46;30.69
10712;BME280;5407;51.234;6.804;2023-01-29T11:46:54;102251.13;;;20.63;31.04
10712;BME280;5407;51.234;6.804;2023-01-29T11:49:30;102252.16;;;20.81;31.16
10712;BME280;5407;51.234;6.804;2023-01-29T11:52:00;102244.56;;;20.97;31.42
10712;BME280;5407;51.234;6.804;2023-01-29T11:54:31;102227.09;;;21.12;31.43
10712;BME280;5407;51.234;6.804;2023-01-29T11:57:01;102229.19;;;21.26;31.50
10712;BME280;5407;51.234;6.804;2023-01-29T11:59:37;102219.91;;;21.37;31.63
10712;BME280;5407;51.234;6.804;2023-01-29T12:02:16;102223.97;;;21.50;31.88
10712;BME280;5407;51.234;6.804;2023-01-29T12:04:45;102218.97;;;21.59;31.85
10712;BME280;5407;51.234;6.804;2023-01-29T12:07:15;102207.31;;;21.69;31.86
10712;BME280;5407;51.234;6.804;2023-01-29T12:09:48;102194.03;;;21.78;31.90
10712;BME280;5407;51.234;6.804;2023-01-29T12:12:27;102200.00;;;21.87;31.89
10712;BME280;5407;51.234;6.804;2023-01-29T12:15:22;102190.63;;;21.95;31.96
10712;BME280;5407;51.234;6.804;2023-01-29T12:18:00;102173.00;;;22.03;31.89
10712;BME280;5407;51.234;6.804;2023-01-29T12:20:34;102168.75;;;22.09;31.79
10712;BME280;5407;51.234;6.804;2023-01-29T12:23:10;102165.66;;;22.14;31.90
10712;BME280;5407;51.234;6.804;2023-01-29T12:25:45;102146.03;;;22.19;31.97
10712;BME280;5407;51.234;6.804;2023-01-29T12:28:21;102135.84;;;22.23;31.74
10712;BME280;5407;51.234;6.804;2023-01-29T12:30:57;102132.72;;;22.28;31.92
10712;BME280;5407;51.234;6.804;2023-01-29T12:33:35;102128.03;;;22.32;31.92
10712;BME280;5407;51.234;6.804;2023-01-29T12:36:09;102111.56;;;22.35;31.88
10712;BME280;5407;51.234;6.804;2023-01-29T12:38:38;102103.34;;;22.39;31.94
10712;BME280;5407;51.234;6.804;2023-01-29T12:41:18;102099.81;;;22.42;31.75
10712;BME280;5407;51.234;6.804;2023-01-29T12:43:52;102101.00;;;22.48;31.87
10712;BME280;5407;51.234;6.804;2023-01-29T12:46:24;102089.63;;;22.49;32.12
10712;BME280;5407;51.234;6.804;2023-01-29T12:48:53;102086.50;;;22.51;32.17
10712;BME280;5407;51.234;6.804;2023-01-29T12:51:24;102088.88;;;22.56;32.01
10712;BME280;5407;51.234;6.804;2023-01-29T12:53:55;102081.78;;;22.58;32.16
10712;BME280;5407;51.234;6.804;2023-01-29T12:56:27;102082.19;;;22.60;32.08
10712;BME280;5407;51.234;6.804;2023-01-29T12:58:56;102066.88;;;22.63;32.27
10712;BME280;5407;51.234;6.804;2023-01-29T13:01:30;102051.16;;;22.63;32.35
10712;BME280;5407;51.234;6.804;2023-01-29T13:04:02;102051.97;;;22.64;32.00
10712;BME280;5407;51.234;6.804;2023-01-29T13:06:34;102052.34;;;22.66;32.34
10712;BME280;5407;51.234;6.804;2023-01-29T13:09:05;102047.25;;;22.68;32.25
10712;BME280;5407;51.234;6.804;2023-01-29T13:11:36;102040.56;;;22.69;32.33
10712;BME280;5407;51.234;6.804;2023-01-29T13:14:11;102044.09;;;22.69;32.32
10712;BME280;5407;51.234;6.804;2023-01-29T13:16:43;102045.69;;;22.74;32.25
10712;BME280;5407;51.234;6.804;2023-01-29T13:19:19;102037.44;;;22.74;32.34
10712;BME280;5407;51.234;6.804;2023-01-29T13:21:49;102037.06;;;22.75;32.21
10712;BME280;5407;51.234;6.804;2023-01-29T13:24:20;102044.13;;;22.76;32.35
10712;BME280;5407;51.234;6.804;2023-01-29T13:26:48;102044.91;;;22.77;32.20
10712;BME280;5407;51.234;6.804;2023-01-29T13:29:21;102048.03;;;22.79;32.29
10712;BME280;5407;51.234;6.804;2023-01-29T13:31:51;102042.53;;;22.79;32.20